createdAt,value
2019-03-30T00:03:53.358Z,185.57
2019-03-30T00:08:55.910Z,204.13
2019-03-30T00:14:01.057Z,201.70
2019-03-30T00:19:03.617Z,197.77
2019-03-30T00:24:06.446Z,192.10
2019-03-30T00:29:10.672Z,187.73
2019-03-30T00:34:16.292Z,188.37
2019-03-30T00:39:18.831Z,192.27
2019-03-30T00:44:21.436Z,174.83
2019-03-30T00:49:24.047Z,182.33
2019-03-30T00:54:26.600Z,162.93
2019-03-30T00:59:29.157Z,141.87
2019-03-30T01:04:33.310Z,152.80
2019-03-30T01:09:35.889Z,140.90
2019-03-30T01:14:41.211Z,124.67
2019-03-30T01:19:43.796Z,133.00
2019-03-30T01:24:46.314Z,129.13
2019-03-30T01:29:50.991Z,117.50
2019-03-30T01:34:56.692Z,121.43
2019-03-30T01:39:59.228Z,125.27
2019-03-30T01:45:01.843Z,119.17
2019-03-30T01:50:16.640Z,113.70
2019-03-30T01:55:10.054Z,108.50
2019-03-30T02:00:13.143Z,97.53
2019-03-30T02:05:15.919Z,89.57
2019-03-30T02:10:38.161Z,83.43
2019-03-30T02:15:40.705Z,87.07
2019-03-30T02:20:44.076Z,77.00
2019-03-30T02:25:46.861Z,80.37
2019-03-30T02:30:52.537Z,80.90
2019-03-30T02:35:55.080Z,83.80
2019-03-30T02:40:57.694Z,90.83
2019-03-30T02:46:00.564Z,81.97
2019-03-30T02:51:03.182Z,82.47
2019-03-30T02:56:05.795Z,84.73
2019-03-30T03:01:08.439Z,90.40
2019-03-30T03:06:11.002Z,86.10
2019-03-30T03:11:13.857Z,84.13
2019-03-30T03:16:16.438Z,84.83
2019-03-30T03:21:19.067Z,83.13
2019-03-30T03:26:24.496Z,82.60
2019-03-30T03:31:27.614Z,79.63
2019-03-30T03:36:30.336Z,81.07
2019-03-30T03:41:33.510Z,83.90
2019-03-30T03:46:36.412Z,74.97
2019-03-30T03:51:39.533Z,82.33
2019-03-30T03:56:46.394Z,74.27
2019-03-30T04:01:51.265Z,75.80
2019-03-30T04:06:59.202Z,72.90
2019-03-30T04:12:11.647Z,80.27
2019-03-30T04:17:14.327Z,71.93
2019-03-30T04:22:17.002Z,73.73
2019-03-30T04:27:19.676Z,63.97
2019-03-30T04:32:22.253Z,69.10
2019-03-30T04:37:24.855Z,71.40
2019-03-30T04:42:30.405Z,68.47
2019-03-30T04:47:32.976Z,69.97
2019-03-30T04:52:35.696Z,64.03
2019-03-30T04:57:38.237Z,65.20
2019-03-30T05:02:42.178Z,63.07
2019-03-30T05:07:44.754Z,60.33
2019-03-30T05:12:47.478Z,62.67
2019-03-30T05:17:50.074Z,61.40
2019-03-30T05:22:52.677Z,56.77
2019-03-30T05:28:01.228Z,56.00
2019-03-30T05:33:05.921Z,57.43
2019-03-30T05:38:08.812Z,61.00
2019-03-30T05:43:11.649Z,60.13
2019-03-30T05:48:14.219Z,56.90
2019-03-30T05:53:16.785Z,53.67
2019-03-30T05:58:19.329Z,53.57
2019-03-30T06:03:22.078Z,54.00
2019-03-30T06:08:24.618Z,53.33
2019-03-30T06:13:27.781Z,49.40
2019-03-30T06:18:30.356Z,51.67
2019-03-30T06:23:33.046Z,58.90
2019-03-30T06:28:37.645Z,50.60
2019-03-30T06:33:40.393Z,51.00
2019-03-30T06:38:42.959Z,51.67
2019-03-30T06:43:45.647Z,54.83
2019-03-30T06:48:48.193Z,54.07
2019-03-30T06:53:53.554Z,45.57
2019-03-30T06:58:56.686Z,48.60
2019-03-30T07:03:59.442Z,45.67
2019-03-30T07:09:04.134Z,45.53
2019-03-30T07:14:10.035Z,44.83
2019-03-30T07:19:16.403Z,43.03
2019-03-30T07:24:19.246Z,43.17
2019-03-30T07:29:24.824Z,43.60
2019-03-30T07:34:27.549Z,45.10
2019-03-30T07:39:30.074Z,41.70
2019-03-30T07:44:32.628Z,41.33
2019-03-30T07:49:35.246Z,44.13
2019-03-30T07:54:37.860Z,41.13
2019-03-30T07:59:40.934Z,39.87
2019-03-30T08:04:43.844Z,43.90
2019-03-30T08:09:46.488Z,39.37
2019-03-30T08:14:49.052Z,38.97
2019-03-30T08:19:53.874Z,36.50
2019-03-30T08:24:56.443Z,35.60
2019-03-30T08:29:59.118Z,39.67
2019-03-30T08:35:01.785Z,42.53
2019-03-30T08:40:04.829Z,38.30
2019-03-30T08:45:11.046Z,43.73
2019-03-30T08:50:13.781Z,44.83
2019-03-30T08:55:16.451Z,43.73
2019-03-30T09:00:37.131Z,37.13
2019-03-30T09:05:42.465Z,39.03
2019-03-30T09:10:45.535Z,36.40
2019-03-30T09:15:48.203Z,38.83
2019-03-30T09:20:50.828Z,41.73
2019-03-30T09:25:53.408Z,39.37
2019-03-30T09:30:56.094Z,36.30
2019-03-30T09:36:00.467Z,35.57
2019-03-30T09:41:03.107Z,40.53
2019-03-30T09:46:05.663Z,37.87
2019-03-30T09:51:08.307Z,35.90
2019-03-30T09:56:10.854Z,39.67
2019-03-30T10:01:13.560Z,35.63
2019-03-30T10:06:16.150Z,42.07
2019-03-30T10:11:18.980Z,41.10
2019-03-30T10:16:21.743Z,39.03
2019-03-30T10:21:24.468Z,50.20
2019-03-30T10:26:27.027Z,38.40
2019-03-30T10:31:31.716Z,38.17
2019-03-30T10:36:34.366Z,43.87
2019-03-30T10:41:38.244Z,42.20
2019-03-30T10:46:40.836Z,38.93
2019-03-30T10:51:43.417Z,42.77
2019-03-30T10:56:45.997Z,39.70
2019-03-30T11:01:48.594Z,40.73
2019-03-30T11:06:51.235Z,36.57
2019-03-30T11:11:53.799Z,39.17
2019-03-30T11:16:59.189Z,40.53
2019-03-30T11:22:03.364Z,41.23
2019-03-30T11:27:06.205Z,44.00
2019-03-30T11:32:10.676Z,39.77
2019-03-30T11:37:13.264Z,38.93
2019-03-30T11:42:15.812Z,39.83
2019-03-30T11:47:18.373Z,36.50
2019-03-30T11:52:21.028Z,41.07
2019-03-30T11:57:23.609Z,41.17
2019-03-30T12:02:28.087Z,38.47
2019-03-30T12:07:34.719Z,41.33
2019-03-30T12:12:40.329Z,42.30
2019-03-30T12:17:42.901Z,46.30
2019-03-30T12:22:45.496Z,40.60
2019-03-30T12:27:48.056Z,43.63
2019-03-30T12:32:51.938Z,41.30
2019-03-30T12:37:54.496Z,44.73
2019-03-30T12:42:57.411Z,41.23
2019-03-30T12:48:02.312Z,44.60
2019-03-30T12:53:06.018Z,45.87
2019-03-30T12:58:08.702Z,44.70
2019-03-30T13:03:12.413Z,50.23
2019-03-30T13:08:14.960Z,50.40
2019-03-30T13:13:17.637Z,48.30
2019-03-30T13:18:20.208Z,49.73
2019-03-30T13:23:22.809Z,49.37
2019-03-30T13:28:26.201Z,49.40
2019-03-30T13:33:28.901Z,53.73
2019-03-30T13:38:31.480Z,51.13
2019-03-30T13:43:34.108Z,54.37
2019-03-30T13:48:36.693Z,47.03
2019-03-30T13:53:39.329Z,55.37
2019-03-30T13:58:41.907Z,57.77
2019-03-30T14:03:47.263Z,58.20
2019-03-30T14:08:54.629Z,61.23
2019-03-30T14:13:57.349Z,53.07
2019-03-30T14:18:59.910Z,52.90
2019-03-30T14:24:02.541Z,61.93
2019-03-30T14:29:05.114Z,56.33
2019-03-30T14:34:07.750Z,63.63
2019-03-30T14:39:10.296Z,62.20
2019-03-30T14:44:15.125Z,67.00
2019-03-30T14:49:17.893Z,70.80
2019-03-30T14:56:14.181Z,74.87
2019-03-30T15:01:19.402Z,77.67
2019-03-30T15:06:22.188Z,80.87
2019-03-30T15:11:25.212Z,77.57
2019-03-30T15:16:27.878Z,80.33
2019-03-30T15:21:31.609Z,77.13
2019-03-30T15:26:34.580Z,73.23
2019-03-30T15:31:37.481Z,75.10
2019-03-30T15:36:40.135Z,69.47
2019-03-30T15:41:43.091Z,70.67
2019-03-30T15:46:48.856Z,70.83
2019-03-30T15:51:57.476Z,81.43
2019-03-30T15:57:13.492Z,75.37
2019-03-30T16:02:08.392Z,79.23
2019-03-30T16:07:12.927Z,73.80
2019-03-30T16:12:17.400Z,76.93
2019-03-30T16:17:20.351Z,75.30
2019-03-30T16:22:23.016Z,80.03
2019-03-30T16:27:29.211Z,76.20
2019-03-30T16:32:30.446Z,67.67
2019-03-30T16:37:33.122Z,65.03
2019-03-30T16:42:36.407Z,74.77
2019-03-30T16:47:39.440Z,68.57
2019-03-30T16:52:46.861Z,76.07
2019-03-30T16:57:52.399Z,77.47
2019-03-30T17:02:54.972Z,78.53
2019-03-30T17:07:57.626Z,84.67
2019-03-30T17:13:00.266Z,80.60
2019-03-30T17:18:04.229Z,81.87
2019-03-30T17:23:07.014Z,74.73
2019-03-30T17:28:09.550Z,72.57
2019-03-30T17:33:12.195Z,69.97
2019-03-30T17:38:16.145Z,70.77
2019-03-30T17:43:18.960Z,62.37
2019-03-30T17:48:21.514Z,66.17
2019-03-30T17:53:24.065Z,68.43
2019-03-30T17:58:30.764Z,58.40
2019-03-30T18:03:33.561Z,60.50
2019-03-30T18:08:36.098Z,62.30
2019-03-30T18:13:38.814Z,73.40
2019-03-30T18:18:41.361Z,65.60
2019-03-30T18:23:47.563Z,58.50
2019-03-30T18:28:50.325Z,63.90
2019-03-30T18:33:55.850Z,60.53
2019-03-30T18:39:09.330Z,61.60
2019-03-30T18:44:03.539Z,67.07
2019-03-30T18:49:06.133Z,70.53
2019-03-30T18:54:08.669Z,63.60
2019-03-30T18:59:11.207Z,69.17
2019-03-30T19:04:13.951Z,78.50
2019-03-30T19:09:17.715Z,68.90
2019-03-30T19:14:20.441Z,65.97
2019-03-30T19:19:23.073Z,75.10
2019-03-30T19:24:26.074Z,77.70
2019-03-30T19:29:31.615Z,71.57
2019-03-30T19:34:34.480Z,76.57
2019-03-30T19:39:37.063Z,76.60
2019-03-30T19:44:40.023Z,80.10
2019-03-30T19:49:42.576Z,88.23
2019-03-30T19:54:48.590Z,82.63
2019-03-30T19:59:51.259Z,88.37
2019-03-30T20:04:53.868Z,89.40
2019-03-30T20:09:56.701Z,91.57
2019-03-30T20:14:59.253Z,89.47
2019-03-30T20:20:01.869Z,100.17
2019-03-30T20:25:05.433Z,90.40
2019-03-30T20:30:09.111Z,98.50
2019-03-30T20:35:11.906Z,102.07
2019-03-30T20:40:14.614Z,103.20
2019-03-30T20:45:17.204Z,103.30
2019-03-30T20:50:20.960Z,103.77
2019-03-30T20:55:23.630Z,103.97
2019-03-30T21:00:26.546Z,106.10
2019-03-30T21:05:29.121Z,101.77
2019-03-30T21:10:33.513Z,107.00
2019-03-30T21:15:36.087Z,109.87
2019-03-30T21:20:41.754Z,113.57
2019-03-30T21:25:44.524Z,110.73
2019-03-30T21:30:47.320Z,107.37
2019-03-30T21:35:52.221Z,121.23
2019-03-30T21:40:56.913Z,118.43
2019-03-30T21:46:01.412Z,115.57
2019-03-30T21:51:03.976Z,128.43
2019-03-30T21:56:07.304Z,127.17
2019-03-30T22:01:09.951Z,125.30
2019-03-30T22:06:15.052Z,131.60
2019-03-30T22:11:17.960Z,133.67
2019-03-30T22:16:20.513Z,141.23
2019-03-30T22:21:23.443Z,139.20
2019-03-30T22:26:27.195Z,137.50
2019-03-30T22:31:29.834Z,149.03
2019-03-30T22:36:32.379Z,146.50
2019-03-30T22:41:35.027Z,145.83
2019-03-30T22:46:37.628Z,143.67
2019-03-30T22:51:40.210Z,147.37
2019-03-30T22:56:53.812Z,157.67
2019-03-30T23:01:58.213Z,167.27
2019-03-30T23:07:03.244Z,155.80
2019-03-30T23:12:05.956Z,168.97
2019-03-30T23:17:08.539Z,170.00
2019-03-30T23:22:15.384Z,169.03
2019-03-30T23:27:17.929Z,184.37
2019-03-30T23:32:22.658Z,181.63
2019-03-30T23:37:25.196Z,204.93
2019-03-30T23:42:27.961Z,203.53
2019-03-30T23:47:30.500Z,194.97
2019-03-30T23:52:33.395Z,203.93
2019-03-30T23:57:38.175Z,199.50
